Time;durP1;ratioP1;P1;durP2;ratioP2;P2;SDS_P1;SDS_P2;PMS_P1;PMS_P2;Temp;Humidity;BMP_temperature;BMP_pressure;BME280_temperature;BME280_humidity;BME280_pressure;Samples;Min_cycle;Max_cycle;Signal;HPM_P1;HPM_P2
2021/03/10 00:02:19;;;;;;;11.05;6.58;;;;;;;-1.98;52.60;101593.77;1676998;84;21877;-54
2021/03/10 00:05:26;;;;;;;9.90;6.62;;;;;;;-1.93;52.59;101591.75;1651293;87;21326;-54
2021/03/10 00:08:33;;;;;;;14.05;6.50;;;;;;;-1.91;52.56;101597.94;1640039;86;21408;-54
2021/03/10 00:11:38;;;;;;;10.55;5.55;;;;;;;-1.87;52.67;101587.94;1627766;87;21370;-54
2021/03/10 00:14:44;;;;;;;8.75;6.17;;;;;;;-1.84;52.71;101599.38;1678882;85;21216;-54
2021/03/10 00:17:50;;;;;;;12.80;6.67;;;;;;;-1.86;52.68;101594.58;1679068;84;21235;-54
2021/03/10 00:20:56;;;;;;;10.48;6.17;;;;;;;-1.94;52.72;101588.68;1679145;85;21268;-54
2021/03/10 00:24:01;;;;;;;9.80;5.87;;;;;;;-2.05;52.83;101589.63;1679191;84;21252;-55
2021/03/10 00:27:07;;;;;;;9.65;6.60;;;;;;;-2.18;53.11;101591.55;1679145;84;21201;-54
2021/03/10 00:30:15;;;;;;;12.85;6.20;;;;;;;-2.25;53.43;101597.64;1679131;85;21291;-55
2021/03/10 00:33:21;;;;;;;11.95;6.83;;;;;;;-2.32;53.64;101589.93;1679128;84;21220;-54
2021/03/10 00:36:27;;;;;;;11.18;6.55;;;;;;;-2.43;53.91;101601.58;1679073;85;21268;-53
2021/03/10 00:39:32;;;;;;;10.80;6.33;;;;;;;-2.48;54.14;101592.39;1679134;85;21240;-55
2021/03/10 00:42:38;;;;;;;12.55;6.80;;;;;;;-2.53;54.39;101595.73;1679220;84;21256;-55
2021/03/10 00:45:44;;;;;;;11.73;7.40;;;;;;;-2.57;54.56;101595.47;1679280;85;21252;-54
2021/03/10 00:48:51;;;;;;;15.32;6.42;;;;;;;-2.56;54.73;101599.87;1641594;86;21269;-53
2021/03/10 00:51:58;;;;;;;11.10;6.55;;;;;;;-2.51;55.08;101597.88;1641658;86;21290;-53
2021/03/10 00:55:04;;;;;;;9.83;6.12;;;;;;;-2.43;55.23;101600.23;1641677;87;21262;-53
2021/03/10 00:58:10;;;;;;;11.83;7.22;;;;;;;-2.41;55.20;101593.02;1672211;84;21773;-54
2021/03/10 01:01:15;;;;;;;12.37;7.17;;;;;;;-2.43;55.17;101599.78;1633579;88;21281;-54
2021/03/10 01:04:21;;;;;;;10.95;6.80;;;;;;;-2.46;55.17;101593.20;1679770;85;21253;-54
2021/03/10 01:07:26;;;;;;;11.30;7.08;;;;;;;-2.44;55.14;101589.97;1677932;84;21304;-54
2021/03/10 01:10:32;;;;;;;14.18;7.85;;;;;;;-2.41;54.98;101597.88;1651236;87;21234;-55
2021/03/10 01:13:37;;;;;;;12.45;7.30;;;;;;;-2.44;54.87;101602.03;1649314;85;21492;-54
2021/03/10 01:16:43;;;;;;;10.23;6.92;;;;;;;-2.46;54.80;101586.97;1617773;88;21394;-53
2021/03/10 01:19:49;;;;;;;12.40;7.10;;;;;;;-2.52;54.85;101596.12;1623181;88;21543;-54
2021/03/10 01:22:54;;;;;;;10.75;6.70;;;;;;;-2.53;54.95;101599.75;1677109;84;21430;-54
2021/03/10 01:26:01;;;;;;;12.95;7.37;;;;;;;-2.52;54.98;101593.44;1651636;86;21250;-54
2021/03/10 01:29:07;;;;;;;13.72;7.17;;;;;;;-2.50;54.98;101591.58;1649482;85;21420;-55
2021/03/10 01:32:12;;;;;;;12.30;7.72;;;;;;;-2.51;54.87;101589.84;1677558;84;21438;-54
2021/03/10 01:35:19;;;;;;;12.50;8.50;;;;;;;-2.51;54.87;101589.84;1651283;87;21337;-54
2021/03/10 01:38:25;;;;;;;14.53;8.73;;;;;;;-2.50;54.90;101583.53;1677185;84;21438;-56
2021/03/10 01:41:31;;;;;;;11.88;8.45;;;;;;;-2.48;54.81;101590.17;1651461;86;21211;-55
2021/03/10 01:44:40;;;;;;;11.03;6.83;;;;;;;-2.54;54.92;101589.97;1649275;87;21365;-55
2021/03/10 01:47:49;;;;;;;12.85;7.80;;;;;;;-2.58;55.15;101596.37;1652114;85;21424;-54
2021/03/10 01:50:54;;;;;;;11.15;7.50;;;;;;;-2.60;55.20;101592.03;1677233;85;21302;-54
2021/03/10 01:54:00;;;;;;;12.20;7.03;;;;;;;-2.67;55.31;101602.13;1677070;84;21386;-54
2021/03/10 01:57:06;;;;;;;12.10;7.20;;;;;;;-2.69;55.53;101611.15;1677662;84;21280;-54
2021/03/10 02:00:14;;;;;;;11.95;6.55;;;;;;;-2.69;55.64;101605.78;1651292;87;21278;-55
2021/03/10 02:03:20;;;;;;;9.30;6.80;;;;;;;-2.71;55.58;101608.53;1649299;85;21455;-54
2021/03/10 02:06:34;;;;;;;12.93;7.62;;;;;;;-2.76;55.46;101615.03;1677400;85;21524;-54
2021/03/10 02:10:16;;;;;;;10.95;7.95;;;;;;;-2.83;55.74;101620.22;1679637;85;21592;-54
2021/03/10 02:13:42;;;;;;;12.10;7.40;;;;;;;-2.85;55.84;101620.28;1658821;85;21257;-54
2021/03/10 02:17:04;;;;;;;13.28;7.97;;;;;;;-2.85;55.85;101617.59;1652825;86;21285;-54
2021/03/10 02:20:31;;;;;;;11.83;7.53;;;;;;;-2.84;55.88;101616.69;1664466;86;21838;-54
2021/03/10 02:23:51;;;;;;;12.73;7.87;;;;;;;-2.85;55.91;101626.97;1684897;84;21348;-55
2021/03/10 02:27:42;;;;;;;12.07;7.67;;;;;;;-2.86;55.98;101631.94;1665344;85;21490;-53
2021/03/10 02:30:49;;;;;;;14.18;7.65;;;;;;;-2.86;56.12;101631.05;1661188;86;21464;-53
2021/03/10 02:33:55;;;;;;;12.85;7.47;;;;;;;-2.92;56.06;101633.53;1688388;83;21292;-54
2021/03/10 02:37:01;;;;;;;10.23;7.00;;;;;;;-2.93;56.44;101639.80;1665510;85;21245;-54
2021/03/10 02:40:07;;;;;;;16.05;9.58;;;;;;;-2.90;56.69;101638.34;1661268;86;21276;-54
2021/03/10 02:43:14;;;;;;;14.07;8.28;;;;;;;-2.88;56.79;101644.97;1665540;85;21297;-53
2021/03/10 02:46:19;;;;;;;20.60;11.83;;;;;;;-2.87;56.71;101649.41;1685511;84;21228;-54
2021/03/10 02:49:25;;;;;;;26.17;13.85;;;;;;;-2.91;56.63;101651.79;1665379;86;21301;-55
2021/03/10 02:52:32;;;;;;;23.32;11.88;;;;;;;-2.96;56.81;101648.41;1684745;84;21205;-54
2021/03/10 02:55:37;;;;;;;19.27;11.18;;;;;;;-2.98;57.09;101649.81;1643266;86;21408;-54
2021/03/10 02:58:45;;;;;;;19.35;10.25;;;;;;;-2.96;57.32;101647.95;1662378;85;21265;-54
2021/03/10 03:01:49;;;;;;;15.35;9.03;;;;;;;-2.93;57.32;101658.55;1685096;85;21204;-54
2021/03/10 03:04:55;;;;;;;15.78;9.95;;;;;;;-2.93;57.45;101660.37;1665538;86;21225;-54
2021/03/10 03:08:00;;;;;;;16.23;10.00;;;;;;;-3.03;57.39;101657.19;1665111;85;21230;-54
2021/03/10 03:11:07;;;;;;;18.27;9.65;;;;;;;-3.11;57.60;101657.94;1679912;85;21229;-54
2021/03/10 03:14:13;;;;;;;16.20;9.15;;;;;;;-3.20;57.84;101656.93;1641766;86;22110;-54
2021/03/10 03:17:19;;;;;;;17.27;9.58;;;;;;;-3.24;57.96;101653.52;1641509;86;21223;-54
2021/03/10 03:20:28;;;;;;;19.12;10.32;;;;;;;-3.28;58.20;101655.00;1624241;87;21266;-54
2021/03/10 03:23:33;;;;;;;14.05;9.33;;;;;;;-3.33;58.46;101662.37;1672373;84;21407;-54
2021/03/10 03:26:39;;;;;;;15.32;9.38;;;;;;;-3.33;58.65;101659.69;1641830;86;21245;-54
2021/03/10 03:29:44;;;;;;;16.73;9.55;;;;;;;-3.32;58.87;101664.98;1641490;87;21258;-54
2021/03/10 03:32:51;;;;;;;15.28;9.65;;;;;;;-3.33;58.76;101669.06;1641602;86;21662;-54
2021/03/10 03:36:00;;;;;;;17.30;10.15;;;;;;;-3.36;58.91;101665.13;1641545;87;21243;-54
2021/03/10 03:39:07;;;;;;;17.65;9.93;;;;;;;-3.46;59.01;101665.08;1672133;84;21296;-55
2021/03/10 03:42:13;;;;;;;17.20;10.25;;;;;;;-3.47;59.38;101670.89;1633936;86;21221;-54
2021/03/10 03:45:19;;;;;;;16.10;10.25;;;;;;;-3.49;59.27;101676.75;1679179;85;21725;-54
2021/03/10 03:48:25;;;;;;;18.27;10.60;;;;;;;-3.55;59.45;101670.78;1641609;86;21314;-54
2021/03/10 03:51:41;;;;;;;17.73;10.85;;;;;;;-3.61;59.59;101671.86;1642604;87;21339;-54
2021/03/10 03:54:46;;;;;;;19.73;10.82;;;;;;;-3.61;59.65;101673.65;1672052;85;21237;-55
2021/03/10 03:57:51;;;;;;;24.77;11.85;;;;;;;-3.65;59.71;101670.23;1641349;86;21314;-54
2021/03/10 04:00:57;;;;;;;23.70;11.65;;;;;;;-3.66;59.82;101670.26;1672906;85;21256;-55
2021/03/10 04:04:05;;;;;;;23.55;12.90;;;;;;;-3.67;59.96;101672.09;1641323;86;21835;-54
2021/03/10 04:07:12;;;;;;;43.85;18.07;;;;;;;-3.69;59.93;101669.92;1672082;84;21304;-54
2021/03/10 04:10:18;;;;;;;29.67;15.25;;;;;;;-3.68;60.08;101669.47;1641834;86;21242;-54
2021/03/10 04:13:23;;;;;;;29.23;14.33;;;;;;;-3.64;60.22;101673.77;1672115;84;21297;-54
2021/03/10 04:16:28;;;;;;;24.72;14.05;;;;;;;-3.63;60.28;101671.03;1641481;87;21234;-54
2021/03/10 04:19:35;;;;;;;23.05;13.53;;;;;;;-3.65;60.19;101674.70;1641580;87;21258;-54
2021/03/10 04:22:41;;;;;;;21.85;13.25;;;;;;;-3.68;60.45;101672.14;1672250;84;21660;-54
2021/03/10 04:25:46;;;;;;;22.95;13.38;;;;;;;-3.59;60.61;101675.81;1634029;87;21249;-56
2021/03/10 04:28:51;;;;;;;23.55;12.58;;;;;;;-3.53;60.53;101676.92;1679340;84;21259;-55
2021/03/10 04:31:58;;;;;;;25.37;13.28;;;;;;;-3.49;60.44;101682.11;1641634;86;21223;-54
2021/03/10 04:35:04;;;;;;;32.65;16.30;;;;;;;-3.48;60.36;101682.98;1672303;85;21335;-54
2021/03/10 04:38:09;;;;;;;30.05;18.23;;;;;;;-3.49;60.25;101683.93;1642312;86;21255;-55
2021/03/10 04:41:14;;;;;;;33.23;16.62;;;;;;;-3.53;60.25;101692.52;1672552;85;21198;-53
2021/03/10 04:44:20;;;;;;;27.55;16.10;;;;;;;-3.54;60.54;101689.45;1641338;87;21322;-54
2021/03/10 04:47:25;;;;;;;33.48;19.00;;;;;;;-3.50;60.76;101694.20;1672249;84;21841;-54
2021/03/10 04:50:31;;;;;;;34.33;19.77;;;;;;;-3.48;60.78;101686.55;1641734;87;21214;-54
2021/03/10 04:53:36;;;;;;;32.48;18.02;;;;;;;-3.46;60.67;101690.50;1672101;84;21265;-55
2021/03/10 04:56:42;;;;;;;31.68;17.90;;;;;;;-3.45;60.62;101693.58;1641527;87;21238;-54
2021/03/10 04:59:48;;;;;;;32.00;17.40;;;;;;;-3.37;60.94;101688.36;1672225;85;21664;-54
2021/03/10 05:02:54;;;;;;;24.63;14.53;;;;;;;-3.22;61.07;101694.96;1642254;86;21309;-54
2021/03/10 05:05:59;;;;;;;29.60;15.03;;;;;;;-3.11;60.81;101694.09;1672430;85;21232;-54
2021/03/10 05:09:06;;;;;;;23.42;13.98;;;;;;;-3.01;60.73;101699.97;1633288;86;21238;-54
2021/03/10 05:12:11;;;;;;;22.87;11.20;;;;;;;-2.91;60.63;101702.23;1678304;85;21284;-55
2021/03/10 05:15:16;;;;;;;22.80;12.47;;;;;;;-2.83;60.31;101696.56;1639748;87;21361;-55
2021/03/10 05:18:22;;;;;;;21.97;12.43;;;;;;;-2.81;59.77;101702.75;1639641;86;21264;-55
2021/03/10 05:21:28;;;;;;;22.05;11.95;;;;;;;-2.79;59.80;101707.09;1630594;87;21266;-55
2021/03/10 05:24:33;;;;;;;19.60;12.00;;;;;;;-2.67;59.75;101721.37;1628028;88;21219;-54
2021/03/10 05:27:38;;;;;;;25.17;14.80;;;;;;;-2.53;59.44;101720.36;1628127;87;21276;-53
2021/03/10 05:30:44;;;;;;;39.08;20.60;;;;;;;-2.46;58.90;101726.36;1639828;86;21285;-53
2021/03/10 05:33:50;;;;;;;39.45;18.73;;;;;;;-2.41;58.76;101721.20;1659696;86;22071;-53
2021/03/10 05:36:56;;;;;;;46.05;20.62;;;;;;;-2.35;58.46;101725.00;1656907;86;21277;-53
2021/03/10 05:40:02;;;;;;;34.63;17.98;;;;;;;-2.37;58.13;101733.56;1652130;86;21640;-53
2021/03/10 05:43:10;;;;;;;45.38;18.92;;;;;;;-2.34;58.11;101724.05;1654686;85;21886;-53
2021/03/10 05:46:17;;;;;;;38.30;19.25;;;;;;;-2.21;58.04;101731.13;1654691;86;21779;-53
2021/03/10 05:49:23;;;;;;;28.17;15.20;;;;;;;-2.11;57.53;101736.53;1654337;86;21234;-54
2021/03/10 05:52:29;;;;;;;21.10;12.23;;;;;;;-2.04;57.36;101736.67;1653512;85;21269;-54
2021/03/10 05:55:35;;;;;;;29.40;14.10;;;;;;;-1.94;57.04;101742.95;1626857;88;21568;-54
2021/03/10 05:58:39;;;;;;;33.60;12.35;;;;;;;-1.95;56.50;101753.26;1652506;86;21870;-54
2021/03/10 06:01:45;;;;;;;36.10;11.60;;;;;;;-1.93;56.43;101756.76;1655867;85;21233;-54
2021/03/10 06:04:50;;;;;;;21.87;10.58;;;;;;;-1.79;56.34;101750.34;1651450;86;21228;-53
2021/03/10 06:08:15;;;;;;;33.02;12.90;;;;;;;-1.61;56.11;101754.05;1652389;86;21268;-55
2021/03/10 06:11:18;;;;;;;139.03;66.22;;;;;;;-1.45;55.60;101758.29;1653776;86;21240;-55
2021/03/10 06:14:26;;;;;;;22.15;10.13;;;;;;;-1.43;55.00;101763.13;1646379;85;21237;-53
2021/03/10 06:17:32;;;;;;;19.12;8.93;;;;;;;-1.33;54.74;101761.80;1705117;84;21355;-52
2021/03/10 06:20:41;;;;;;;22.15;10.48;;;;;;;-1.19;53.74;101762.91;1677852;85;21207;-53
2021/03/10 06:23:58;;;;;;;22.02;12.10;;;;;;;-1.05;53.01;101762.31;1644805;86;21254;-52
2021/03/10 06:27:04;;;;;;;17.92;8.28;;;;;;;-0.93;52.96;101755.03;1628575;86;21218;-52
2021/03/10 06:30:09;;;;;;;11.53;7.03;;;;;;;-0.81;52.66;101762.05;1677377;85;21212;-52
2021/03/10 06:33:15;;;;;;;11.57;6.28;;;;;;;-0.77;51.81;101766.36;1645230;86;21799;-52
2021/03/10 06:36:29;;;;;;;13.22;6.70;;;;;;;-0.77;50.90;101769.52;1617963;88;21233;-52
2021/03/10 06:39:38;;;;;;;7.00;4.87;;;;;;;-0.73;50.42;101775.17;1629366;88;21830;-51
2021/03/10 06:42:45;;;;;;;8.25;5.10;;;;;;;-0.66;49.66;101768.09;1678719;84;21284;-51
2021/03/10 06:45:50;;;;;;;22.45;7.20;;;;;;;-0.53;48.84;101762.55;1679026;85;21217;-52
2021/03/10 06:49:10;;;;;;;30.43;17.12;;;;;;;-0.42;48.58;101760.22;1662776;85;21242;-52
2021/03/10 06:52:17;;;;;;;10.50;5.85;;;;;;;-0.36;48.36;101764.41;1673002;84;21254;-52
2021/03/10 06:55:22;;;;;;;67.12;44.05;;;;;;;-0.25;48.12;101764.31;1673073;86;21302;-54
2021/03/10 06:58:34;;;;;;;10.95;6.05;;;;;;;-0.19;47.30;101767.19;1663057;84;21257;-52
2021/03/10 07:01:48;;;;;;;10.32;5.10;;;;;;;-0.10;46.79;101773.47;1653664;87;21240;-54
2021/03/10 07:04:58;;;;;;;;;;;;;;;-0.06;45.41;101776.39;1669898;85;21261;-53
2021/03/10 07:08:03;;;;;;;11.40;5.05;;;;;;;-0.02;45.11;101769.92;1653237;85;20228;-52
2021/03/10 07:11:08;;;;;;;11.40;5.90;;;;;;;0.05;44.54;101775.89;1705687;84;21213;-51
2021/03/10 07:14:16;;;;;;;9.00;5.92;;;;;;;0.06;43.71;101773.12;1707036;82;21374;-52
2021/03/10 07:17:28;;;;;;;6.75;4.17;;;;;;;0.09;43.77;101775.66;1655739;85;21242;-52
2021/03/10 07:20:35;;;;;;;11.18;6.20;;;;;;;0.21;42.94;101773.69;1653855;86;21592;-52
2021/03/10 07:23:49;;;;;;;35.65;20.80;;;;;;;0.31;42.70;101777.67;1707567;83;21378;-52
2021/03/10 07:26:59;;;;;;;15.50;7.37;;;;;;;0.43;42.85;101771.66;1707350;84;21730;-53
2021/03/10 07:30:06;;;;;;;8.98;6.03;;;;;;;0.48;42.48;101770.95;1660868;86;21364;-52
2021/03/10 07:33:22;;;;;;;8.20;5.30;;;;;;;0.52;42.20;101771.20;1707237;84;21378;-51
2021/03/10 07:36:49;;;;;;;10.48;5.45;;;;;;;0.48;41.87;101766.91;1660648;86;21380;-54
2021/03/10 07:39:54;;;;;;;9.38;5.50;;;;;;;0.40;42.01;101765.08;1703755;84;21189;-54
2021/03/10 07:43:03;;;;;;;21.17;6.25;;;;;;;0.41;41.71;101762.80;1704691;82;21366;-53
2021/03/10 07:46:10;;;;;;;9.20;5.87;;;;;;;0.47;41.56;101757.09;1690887;84;21220;-52
2021/03/10 07:49:32;;;;;;;12.03;6.55;;;;;;;0.58;41.43;101764.16;1689804;83;21698;-51
2021/03/10 07:52:38;;;;;;;12.03;6.03;;;;;;;0.63;41.14;101767.95;1702420;83;21244;-52
2021/03/10 07:55:53;;;;;;;13.28;5.35;;;;;;;0.61;41.07;101763.98;1706539;84;21734;-51
2021/03/10 07:58:59;;;;;;;10.93;5.53;;;;;;;0.66;40.59;101759.24;1707041;84;21774;-51
2021/03/10 08:02:14;;;;;;;10.58;5.72;;;;;;;0.75;40.23;101762.80;1706115;84;21374;-50
2021/03/10 08:05:32;;;;;;;26.25;16.80;;;;;;;0.82;39.91;101766.92;1709266;82;21948;-52
2021/03/10 08:08:47;;;;;;;9.93;5.50;;;;;;;0.85;39.93;101769.45;1667728;84;21242;-51
2021/03/10 08:11:57;;;;;;;7.90;5.50;;;;;;;0.90;39.51;101761.12;1643119;85;21308;-51
2021/03/10 08:15:06;;;;;;;9.35;5.37;;;;;;;0.80;39.55;101767.47;1696498;84;21393;-51
2021/03/10 08:18:13;;;;;;;9.15;5.42;;;;;;;0.82;39.93;101773.66;1696528;83;21388;-50
2021/03/10 08:21:21;;;;;;;8.65;4.92;;;;;;;0.90;39.41;101772.78;1697959;84;21360;-49
2021/03/10 08:24:31;;;;;;;9.13;5.30;;;;;;;0.97;39.62;101766.09;1705999;84;21237;-50
2021/03/10 08:27:50;;;;;;;7.75;4.85;;;;;;;1.10;39.52;101767.20;1705456;84;21375;-52
2021/03/10 08:30:56;;;;;;;7.60;4.70;;;;;;;1.21;39.31;101763.44;1701432;83;21501;-51
2021/03/10 08:34:01;;;;;;;8.60;5.37;;;;;;;1.30;39.30;101758.89;1705017;82;21217;-52
2021/03/10 08:37:09;;;;;;;8.80;5.10;;;;;;;1.42;39.14;101759.58;1697899;84;21221;-51
2021/03/10 08:40:16;;;;;;;9.90;4.83;;;;;;;1.48;38.79;101747.56;1705216;84;21821;-53
2021/03/10 08:43:29;;;;;;;10.03;5.70;;;;;;;1.45;38.60;101754.48;1700892;83;21218;-49
2021/03/10 08:46:49;;;;;;;7.95;4.70;;;;;;;1.37;38.21;101763.00;1704109;82;21322;-51
2021/03/10 08:50:04;;;;;;;12.37;5.50;;;;;;;1.34;38.45;101745.64;1697203;83;21221;-49
2021/03/10 08:53:13;;;;;;;9.20;4.33;;;;;;;1.44;38.37;101747.36;1671122;84;21240;-51
2021/03/10 08:56:21;;;;;;;7.40;4.83;;;;;;;1.48;37.90;101753.84;1713173;82;21728;-50
2021/03/10 08:59:28;;;;;;;8.78;4.70;;;;;;;1.37;37.98;101748.17;1700020;83;21243;-50
2021/03/10 09:02:40;;;;;;;9.13;4.67;;;;;;;1.36;38.22;101750.45;1699054;81;21224;-50
2021/03/10 09:05:49;;;;;;;9.10;5.20;;;;;;;1.33;37.94;101753.81;1683138;83;21729;-50
2021/03/10 09:08:56;;;;;;;9.85;6.08;;;;;;;1.36;37.77;101746.41;1684300;83;21208;-49
2021/03/10 09:12:06;;;;;;;7.22;5.03;;;;;;;1.36;37.83;101746.41;1701239;82;21193;-50
2021/03/10 09:15:26;;;;;;;9.53;5.22;;;;;;;1.39;37.79;101749.43;1693625;83;21194;-50
2021/03/10 09:18:41;;;;;;;8.05;5.20;;;;;;;1.40;37.67;101738.55;1701757;82;21227;-49
2021/03/10 09:21:50;;;;;;;6.47;4.08;;;;;;;1.47;37.78;101748.03;1700307;82;21239;-49
2021/03/10 09:25:04;;;;;;;9.60;4.75;;;;;;;1.53;37.68;101740.09;1679173;85;21254;-49
2021/03/10 09:28:20;;;;;;;6.67;3.95;;;;;;;1.59;37.91;101745.64;1640607;86;21267;-51
2021/03/10 09:31:29;;;;;;;7.87;4.00;;;;;;;1.67;37.50;101742.00;1673958;84;21746;-49
2021/03/10 09:34:35;;;;;;;10.08;4.33;;;;;;;1.66;37.15;101732.17;1653467;87;21361;-50
2021/03/10 09:37:41;;;;;;;9.13;4.47;;;;;;;1.53;37.23;101735.57;1653376;87;21816;-49
2021/03/10 09:40:50;;;;;;;7.10;4.70;;;;;;;1.52;37.46;101732.97;1706677;84;21250;-50
2021/03/10 09:44:11;;;;;;;8.80;5.60;;;;;;;1.61;37.97;101740.53;1706876;84;21416;-50
2021/03/10 09:47:24;;;;;;;7.40;4.78;;;;;;;1.77;37.62;101737.83;1697895;82;21267;-51
2021/03/10 09:50:43;;;;;;;5.67;3.73;;;;;;;1.87;37.46;101741.77;1695781;83;21196;-51
2021/03/10 09:53:52;;;;;;;6.05;4.17;;;;;;;1.93;37.50;101749.50;1711908;82;21236;-48
2021/03/10 09:57:00;;;;;;;6.25;4.65;;;;;;;1.92;37.24;101743.72;1673924;84;21790;-49
2021/03/10 10:00:08;;;;;;;6.90;4.00;;;;;;;2.02;37.21;101743.09;1652778;85;21285;-49
2021/03/10 10:03:15;;;;;;;7.15;4.30;;;;;;;2.16;37.05;101735.06;1652114;85;21250;-49
2021/03/10 10:06:22;;;;;;;5.80;3.87;;;;;;;2.27;37.18;101736.65;1677416;85;21225;-50
2021/03/10 10:09:27;;;;;;;7.20;4.15;;;;;;;2.26;37.00;101739.44;1677985;85;21212;-49
2021/03/10 10:12:35;;;;;;;6.90;4.15;;;;;;;2.28;36.77;101726.72;1640661;86;21863;-50
2021/03/10 10:15:43;;;;;;;4.97;3.42;;;;;;;2.34;36.56;101731.28;1683998;83;21213;-50
2021/03/10 10:18:51;;;;;;;7.03;3.98;;;;;;;2.26;36.34;101729.98;1659503;84;21233;-49
2021/03/10 10:21:57;;;;;;;5.20;3.83;;;;;;;2.19;36.26;101724.58;1656034;85;21234;-50
2021/03/10 10:25:03;;;;;;;7.10;3.55;;;;;;;2.18;36.86;101714.71;1670864;85;21314;-50
2021/03/10 10:28:11;;;;;;;5.85;3.47;;;;;;;2.30;36.87;101718.05;1666725;86;21246;-50
2021/03/10 10:31:16;;;;;;;8.43;3.90;;;;;;;2.35;36.47;101716.80;1697194;84;21797;-50
2021/03/10 10:34:24;;;;;;;6.45;3.90;;;;;;;2.20;36.44;101713.67;1668518;85;21246;-50
2021/03/10 10:37:32;;;;;;;7.47;4.25;;;;;;;2.12;36.73;101710.55;1690435;83;21393;-49
2021/03/10 10:40:38;;;;;;;8.03;3.90;;;;;;;2.25;37.15;101711.55;1654578;86;21245;-49
2021/03/10 10:43:46;;;;;;;6.83;4.25;;;;;;;2.34;37.69;101704.73;1686160;85;21247;-50
2021/03/10 10:46:53;;;;;;;5.58;3.90;;;;;;;2.40;37.28;101700.31;1654679;86;21373;-50
2021/03/10 10:50:01;;;;;;;8.03;4.20;;;;;;;2.52;36.94;101697.73;1692263;83;21202;-50
2021/03/10 10:53:10;;;;;;;9.60;4.30;;;;;;;2.70;36.55;101703.39;1670038;84;21285;-48
2021/03/10 10:56:14;;;;;;;6.87;3.90;;;;;;;2.86;36.30;101694.73;1669652;84;21222;-50
2021/03/10 10:59:22;;;;;;;4.90;3.67;;;;;;;2.94;35.73;101690.19;1669895;85;21926;-50
2021/03/10 11:02:29;;;;;;;7.58;4.83;;;;;;;2.97;35.65;101694.92;1677493;84;21773;-51
2021/03/10 11:05:40;;;;;;;8.78;4.72;;;;;;;2.76;35.44;101694.02;1711977;84;21479;-51
2021/03/10 11:08:51;;;;;;;5.65;4.28;;;;;;;2.54;35.72;101685.48;1678390;84;21185;-50
2021/03/10 11:11:56;;;;;;;7.20;4.17;;;;;;;2.70;36.49;101679.06;1696986;84;21733;-51
2021/03/10 11:15:03;;;;;;;10.20;5.78;;;;;;;2.91;36.26;101682.27;1687213;83;21579;-51
2021/03/10 11:18:11;;;;;;;21.97;5.17;;;;;;;3.03;36.35;101676.95;1671956;84;21218;-51
2021/03/10 11:21:15;;;;;;;7.55;4.17;;;;;;;3.27;36.43;101679.94;1659897;86;21235;-51
2021/03/10 11:24:22;;;;;;;8.78;4.15;;;;;;;3.43;35.93;101677.99;1667255;84;21215;-52
2021/03/10 11:27:29;;;;;;;17.85;5.28;;;;;;;3.54;35.50;101667.34;1687253;84;21221;-50
2021/03/10 11:30:37;;;;;;;12.93;4.97;;;;;;;3.58;35.30;101664.83;1699002;84;21244;-56
2021/03/10 11:33:42;;;;;;;10.45;5.00;;;;;;;3.77;35.52;101666.72;1658785;86;21253;-55
2021/03/10 11:36:49;;;;;;;10.15;5.97;;;;;;;4.01;35.21;101665.56;1705615;84;21749;-55
2021/03/10 11:39:55;;;;;;;7.00;4.45;;;;;;;4.14;34.78;101663.74;1701545;84;21723;-56
2021/03/10 11:43:02;;;;;;;7.40;4.60;;;;;;;4.26;34.71;101661.57;1713281;82;21209;-56
2021/03/10 11:46:07;;;;;;;8.60;5.03;;;;;;;4.35;34.44;101650.97;1715438;82;21224;-56
2021/03/10 11:49:13;;;;;;;12.18;5.25;;;;;;;4.35;33.86;101640.60;1689228;83;21935;-55
2021/03/10 11:52:19;;;;;;;8.08;5.05;;;;;;;4.49;33.81;101641.39;1652868;85;21328;-55
2021/03/10 11:55:24;;;;;;;8.68;5.45;;;;;;;4.70;33.84;101640.37;1659456;84;21266;-55
2021/03/10 11:58:30;;;;;;;9.65;5.67;;;;;;;4.85;33.82;101639.78;1696054;83;21801;-56
2021/03/10 12:01:38;;;;;;;10.80;5.90;;;;;;;4.86;33.52;101634.73;1701473;83;21785;-55
2021/03/10 12:04:49;;;;;;;7.60;4.85;;;;;;;4.98;33.42;101632.52;1666792;84;21244;-56
2021/03/10 12:07:56;;;;;;;9.10;5.40;;;;;;;5.04;32.21;101637.02;1711090;83;21213;-56
2021/03/10 12:11:02;;;;;;;11.03;5.60;;;;;;;5.11;32.10;101630.16;1704110;82;21194;-57
2021/03/10 12:14:07;;;;;;;15.85;6.25;;;;;;;5.20;32.12;101631.34;1695358;83;21225;-55
2021/03/10 12:17:12;;;;;;;15.25;5.37;;;;;;;5.24;31.78;101629.66;1658459;85;21225;-55
2021/03/10 12:20:19;;;;;;;13.00;5.75;;;;;;;5.24;31.91;101631.02;1706267;82;21271;-56
2021/03/10 12:23:27;;;;;;;7.75;5.28;;;;;;;5.31;32.04;101626.84;1712629;81;21300;-56
2021/03/10 12:26:34;;;;;;;31.00;6.78;;;;;;;5.39;32.54;101610.02;1702126;82;21806;-57
2021/03/10 12:29:39;;;;;;;11.73;5.47;;;;;;;5.58;32.98;101622.62;1702157;84;21213;-56
2021/03/10 12:32:44;;;;;;;9.00;5.53;;;;;;;5.74;32.52;101614.55;1701836;84;21225;-56
2021/03/10 12:35:50;;;;;;;13.45;5.75;;;;;;;5.77;32.27;101612.95;1675992;85;21422;-56
2021/03/10 12:38:55;;;;;;;11.43;5.42;;;;;;;5.80;31.60;101611.88;1676236;84;21240;-55
2021/03/10 12:42:00;;;;;;;9.40;6.37;;;;;;;5.81;31.19;101612.23;1676086;84;21221;-55
2021/03/10 12:45:08;;;;;;;11.12;6.78;;;;;;;5.69;30.74;101609.09;1694073;83;21195;-56
2021/03/10 12:48:14;;;;;;;13.30;6.10;;;;;;;5.59;31.09;101607.56;1698376;82;21268;-58
2021/03/10 12:51:20;;;;;;;11.25;6.75;;;;;;;5.67;30.95;101609.70;1704828;83;21754;-56
2021/03/10 12:54:24;;;;;;;8.95;6.25;;;;;;;5.53;30.53;101601.23;1695902;84;21206;-56
2021/03/10 12:57:30;;;;;;;10.38;6.60;;;;;;;5.32;30.66;101600.58;1693718;83;21222;-57
2021/03/10 13:00:36;;;;;;;8.53;6.53;;;;;;;5.28;30.60;101596.37;1709512;84;21213;-57
2021/03/10 13:03:41;;;;;;;8.53;5.80;;;;;;;5.09;30.76;101597.33;1695853;84;21751;-55
2021/03/10 13:06:50;;;;;;;14.80;5.65;;;;;;;5.04;31.21;101599.51;1710448;82;21204;-55
2021/03/10 13:09:55;;;;;;;17.75;5.83;;;;;;;5.18;31.39;101592.58;1674592;83;21241;-55
2021/03/10 13:13:00;;;;;;;22.60;7.12;;;;;;;5.19;31.59;101584.80;1699458;84;21751;-56
2021/03/10 13:16:06;;;;;;;11.48;5.72;;;;;;;5.25;31.70;101591.17;1714554;83;21762;-55
2021/03/10 13:19:12;;;;;;;14.80;6.40;;;;;;;5.31;32.13;101586.13;1678957;84;21243;-56
2021/03/10 13:22:18;;;;;;;19.20;6.15;;;;;;;5.41;31.94;101593.10;1720891;81;21208;-55
2021/03/10 13:25:23;;;;;;;25.35;7.12;;;;;;;5.39;32.40;101591.86;1709666;83;21872;-56
2021/03/10 13:28:29;;;;;;;15.05;5.80;;;;;;;5.46;32.01;101593.63;1649926;87;21607;-56
2021/03/10 13:31:36;;;;;;;13.32;5.17;;;;;;;5.54;31.94;101592.58;1704342;84;21210;-55
2021/03/10 13:34:42;;;;;;;17.42;6.05;;;;;;;5.51;31.18;101592.80;1703794;84;21817;-56
2021/03/10 13:37:48;;;;;;;10.93;5.20;;;;;;;5.33;30.94;101593.67;1706952;81;21225;-55
2021/03/10 13:40:54;;;;;;;7.65;3.65;;;;;;;5.39;31.40;101588.30;1701134;84;21266;-56
2021/03/10 13:44:01;;;;;;;5.70;4.28;;;;;;;5.53;31.40;101585.42;1702273;83;21261;-55
2021/03/10 13:47:10;;;;;;;8.33;4.30;;;;;;;5.70;31.78;101591.33;1703757;83;21205;-55
2021/03/10 13:50:21;;;;;;;12.85;5.12;;;;;;;5.83;31.37;101589.45;1667395;84;21239;-56
2021/03/10 13:53:29;;;;;;;16.12;8.15;;;;;;;5.83;30.88;101587.22;1654953;85;21760;-55
2021/03/10 13:56:34;;;;;;;13.10;5.62;;;;;;;5.61;30.47;101581.64;1702263;83;21767;-55
2021/03/10 13:59:40;;;;;;;11.60;5.22;;;;;;;5.56;30.50;101591.98;1675735;85;21816;-55
2021/03/10 14:02:49;;;;;;;7.80;3.80;;;;;;;5.45;30.26;101580.57;1677683;84;21409;-57
2021/03/10 14:05:55;;;;;;;8.95;4.87;;;;;;;5.20;30.39;101587.41;1677739;85;21352;-54
2021/03/10 14:09:00;;;;;;;11.30;4.97;;;;;;;4.86;30.44;101588.13;1697721;83;21770;-54
2021/03/10 14:12:07;;;;;;;12.30;6.20;;;;;;;4.68;30.91;101584.01;1703985;83;21251;-54
2021/03/10 14:15:13;;;;;;;7.10;4.20;;;;;;;4.65;31.49;101580.16;1702615;84;21244;-56
2021/03/10 14:18:18;;;;;;;13.35;6.17;;;;;;;4.55;30.65;101582.66;1702960;84;21221;-54
2021/03/10 14:21:24;;;;;;;21.75;12.78;;;;;;;4.42;30.79;101576.36;1703810;84;21233;-56
2021/03/10 14:24:32;;;;;;;14.53;7.83;;;;;;;4.51;31.11;101573.02;1699230;84;21353;-55
2021/03/10 14:27:40;;;;;;;7.40;3.92;;;;;;;4.70;31.07;101574.41;1659439;86;21304;-55
2021/03/10 14:30:47;;;;;;;9.38;3.33;;;;;;;4.86;30.91;101569.63;1707389;84;21349;-54